createdAt,value
2023-03-20T00:02:20.654Z,5.82
2023-03-20T00:04:47.666Z,5.81
2023-03-20T00:07:14.591Z,5.88
2023-03-20T00:09:42.543Z,5.78
2023-03-20T00:12:16.328Z,5.87
2023-03-20T00:14:43.140Z,5.92
2023-03-20T00:17:20.768Z,6.01
2023-03-20T00:19:47.679Z,5.95
2023-03-20T00:22:14.441Z,5.75
2023-03-20T00:24:41.202Z,5.91
2023-03-20T00:27:13.998Z,5.85
2023-03-20T00:29:41.216Z,5.86
2023-03-20T00:32:15.595Z,5.83
2023-03-20T00:34:42.691Z,5.74
2023-03-20T00:37:11.938Z,5.80
2023-03-20T00:39:38.814Z,5.78
2023-03-20T00:42:07.860Z,5.67
2023-03-20T00:44:39.527Z,5.54
2023-03-20T00:47:18.416Z,5.45
2023-03-20T00:49:48.708Z,5.51
2023-03-20T00:52:17.863Z,5.50
2023-03-20T00:54:44.680Z,5.46
2023-03-20T00:57:30.650Z,5.40
2023-03-20T01:00:05.351Z,5.44
2023-03-20T01:02:32.920Z,5.16
2023-03-20T01:05:00.239Z,5.24
2023-03-20T01:07:27.881Z,5.28
2023-03-20T01:09:54.668Z,4.90
2023-03-20T01:12:21.554Z,5.04
2023-03-20T01:14:55.924Z,5.06
2023-03-20T01:17:25.730Z,4.94
2023-03-20T01:19:52.799Z,5.05
2023-03-20T01:22:20.145Z,5.06
2023-03-20T01:24:47.569Z,5.18
2023-03-20T01:27:18.194Z,5.19
2023-03-20T01:29:45.440Z,5.19
2023-03-20T01:32:16.162Z,5.11
2023-03-20T01:34:43.547Z,5.14
2023-03-20T01:37:23.231Z,5.11
2023-03-20T01:39:50.112Z,4.86
2023-03-20T01:42:18.419Z,4.94
2023-03-20T01:44:46.875Z,5.09
2023-03-20T01:47:26.112Z,5.18
2023-03-20T01:50:31.366Z,5.26
2023-03-20T01:53:21.029Z,5.27
2023-03-20T01:55:51.913Z,5.23
2023-03-20T01:58:31.979Z,5.11
2023-03-20T02:00:59.853Z,5.24
2023-03-20T02:03:27.446Z,5.13
2023-03-20T02:05:56.118Z,5.03
2023-03-20T02:08:31.196Z,4.81
2023-03-20T02:11:00.952Z,4.74
2023-03-20T02:13:31.254Z,4.76
2023-03-20T02:16:15.611Z,4.96
2023-03-20T02:18:49.129Z,4.95
2023-03-20T02:21:48.291Z,4.95
2023-03-20T02:24:53.752Z,4.94
2023-03-20T02:28:14.415Z,4.95
2023-03-20T02:30:52.956Z,4.87
2023-03-20T02:34:22.013Z,5.04
2023-03-20T02:37:21.310Z,5.03
2023-03-20T02:40:02.868Z,5.00
2023-03-20T02:43:06.042Z,4.85
2023-03-20T02:46:28.253Z,4.81
2023-03-20T02:49:05.214Z,4.82
2023-03-20T02:51:54.433Z,4.87
2023-03-20T02:54:33.758Z,4.91
2023-03-20T02:57:08.666Z,4.92
2023-03-20T02:59:54.670Z,4.86
2023-03-20T03:02:47.675Z,4.76
2023-03-20T03:05:23.225Z,4.81
2023-03-20T03:07:53.076Z,4.75
2023-03-20T03:10:42.202Z,4.81
2023-03-20T03:13:17.459Z,4.87
2023-03-20T03:15:49.626Z,4.91
2023-03-20T03:18:21.832Z,4.91
2023-03-20T03:20:54.356Z,4.78
2023-03-20T03:23:32.668Z,4.80
2023-03-20T03:26:03.292Z,4.78
2023-03-20T03:28:41.561Z,4.87
2023-03-20T03:31:12.884Z,4.86
2023-03-20T03:33:47.867Z,4.98
2023-03-20T03:36:54.469Z,4.96
2023-03-20T03:39:42.407Z,4.93
2023-03-20T03:42:36.104Z,4.98
2023-03-20T03:45:48.573Z,4.74
2023-03-20T03:48:33.867Z,4.82
2023-03-20T03:51:17.561Z,4.67
2023-03-20T03:53:58.187Z,4.69
2023-03-20T03:56:28.446Z,4.64
2023-03-20T03:59:01.368Z,4.76
2023-03-20T04:01:29.499Z,4.83
2023-03-20T04:04:01.187Z,4.87
2023-03-20T04:06:28.565Z,4.80
2023-03-20T04:08:55.785Z,4.85
2023-03-20T04:11:25.536Z,4.87
2023-03-20T04:13:53.223Z,4.99
2023-03-20T04:16:22.712Z,4.66
2023-03-20T04:18:50.932Z,4.70
2023-03-20T04:21:17.986Z,4.82
2023-03-20T04:23:44.830Z,4.83
2023-03-20T04:26:14.525Z,4.58
2023-03-20T04:28:41.510Z,4.66
2023-03-20T04:31:08.374Z,4.58
2023-03-20T04:33:35.202Z,4.78
2023-03-20T04:36:02.105Z,4.76
2023-03-20T04:39:04.099Z,4.93
2023-03-20T04:41:30.839Z,4.97
2023-03-20T04:43:57.598Z,5.03
2023-03-20T04:46:24.448Z,5.05
2023-03-20T04:48:51.216Z,5.03
2023-03-20T04:51:18.004Z,5.12
2023-03-20T04:53:44.811Z,5.12
2023-03-20T04:56:11.650Z,5.23
2023-03-20T04:58:38.410Z,5.20
2023-03-20T05:01:05.485Z,5.31
2023-03-20T05:03:32.219Z,5.22
2023-03-20T05:05:59.804Z,5.36
2023-03-20T05:08:27.296Z,5.28
2023-03-20T05:10:54.160Z,5.30
2023-03-20T05:13:20.891Z,5.39
2023-03-20T05:15:48.010Z,5.35
2023-03-20T05:18:14.894Z,5.30
2023-03-20T05:20:42.551Z,5.43
2023-03-20T05:23:09.310Z,5.29
2023-03-20T05:25:36.412Z,5.40
2023-03-20T05:28:03.474Z,5.53
2023-03-20T05:30:30.456Z,5.44
2023-03-20T05:32:57.829Z,5.43
2023-03-20T05:35:24.591Z,5.48
2023-03-20T05:37:51.467Z,5.47
2023-03-20T05:40:19.398Z,5.57
2023-03-20T05:42:46.853Z,5.56
2023-03-20T05:45:13.717Z,5.59
2023-03-20T05:47:40.429Z,5.65
2023-03-20T05:50:07.393Z,5.47
2023-03-20T05:52:34.221Z,5.59
2023-03-20T05:55:01.197Z,5.67
2023-03-20T05:57:27.952Z,5.58
2023-03-20T05:59:54.721Z,5.59
2023-03-20T06:02:21.617Z,5.66
2023-03-20T06:04:48.398Z,5.72
2023-03-20T06:07:15.202Z,5.62
2023-03-20T06:09:41.988Z,5.73
2023-03-20T06:12:09.728Z,5.72
2023-03-20T06:14:36.515Z,5.66
2023-03-20T06:17:03.364Z,5.62
2023-03-20T06:19:30.088Z,5.64
2023-03-20T06:21:56.897Z,5.63
2023-03-20T06:24:23.900Z,5.68
2023-03-20T06:26:50.689Z,5.66
2023-03-20T06:29:17.741Z,5.90
2023-03-20T06:31:44.742Z,5.90
2023-03-20T06:34:11.572Z,5.87
2023-03-20T06:36:38.462Z,6.00
2023-03-20T06:39:05.348Z,6.02
2023-03-20T06:41:34.945Z,6.10
2023-03-20T06:44:03.991Z,5.98
2023-03-20T06:46:30.980Z,6.15
2023-03-20T06:48:57.822Z,6.13
2023-03-20T06:51:24.560Z,6.26
2023-03-20T06:53:51.345Z,6.37
2023-03-20T06:56:18.450Z,6.43
2023-03-20T06:58:45.336Z,6.41
2023-03-20T07:01:15.237Z,6.63
2023-03-20T07:03:42.204Z,6.51
2023-03-20T07:06:09.948Z,6.71
2023-03-20T07:08:37.001Z,6.76
2023-03-20T07:11:04.443Z,6.96
2023-03-20T07:13:32.836Z,7.08
2023-03-20T07:16:04.880Z,7.14
2023-03-20T07:18:32.712Z,7.30
2023-03-20T07:21:03.565Z,7.41
2023-03-20T07:23:30.997Z,7.46
2023-03-20T07:25:58.976Z,7.62
2023-03-20T07:28:26.123Z,7.68
2023-03-20T07:30:53.018Z,7.93
2023-03-20T07:33:21.162Z,8.10
2023-03-20T07:35:53.899Z,8.21
2023-03-20T07:38:22.025Z,8.30
2023-03-20T07:40:49.413Z,8.41
2023-03-20T07:43:17.618Z,8.58
2023-03-20T07:45:44.470Z,8.76
2023-03-20T07:48:11.304Z,8.85
2023-03-20T07:50:38.219Z,9.12
2023-03-20T07:53:05.008Z,9.26
2023-03-20T07:55:31.764Z,9.48
2023-03-20T07:57:58.594Z,9.30
2023-03-20T08:00:27.805Z,9.42
2023-03-20T08:02:57.159Z,9.51
2023-03-20T08:05:24.843Z,9.55
2023-03-20T08:07:51.991Z,9.53
2023-03-20T08:10:18.998Z,9.61
2023-03-20T08:12:45.930Z,9.47
2023-03-20T08:15:13.209Z,9.63
2023-03-20T08:17:44.634Z,9.59
2023-03-20T08:20:16.367Z,9.50
2023-03-20T08:22:45.211Z,9.46
2023-03-20T08:25:12.159Z,9.44
2023-03-20T08:27:38.960Z,9.45
2023-03-20T08:30:06.677Z,9.47
2023-03-20T08:32:33.810Z,9.52
2023-03-20T08:35:00.808Z,9.66
2023-03-20T08:37:28.349Z,9.69
2023-03-20T08:39:55.282Z,9.66
2023-03-20T08:42:22.189Z,9.72
2023-03-20T08:44:49.325Z,9.71
2023-03-20T08:47:16.399Z,9.73
2023-03-20T08:49:44.039Z,9.59
2023-03-20T08:52:11.346Z,9.58
2023-03-20T08:54:38.096Z,9.72
2023-03-20T08:57:04.865Z,9.53
2023-03-20T08:59:31.631Z,9.60
2023-03-20T09:01:58.518Z,9.57
2023-03-20T09:04:25.931Z,9.60
2023-03-20T09:06:52.793Z,9.61
2023-03-20T09:09:21.750Z,9.40
2023-03-20T09:11:48.584Z,9.60
2023-03-20T09:14:15.765Z,9.76
2023-03-20T09:16:42.521Z,9.68
2023-03-20T09:19:09.333Z,9.58
2023-03-20T09:21:36.319Z,9.74
2023-03-20T09:24:03.497Z,9.65
2023-03-20T09:26:30.784Z,9.71
2023-03-20T09:28:57.656Z,9.53
2023-03-20T09:31:24.441Z,9.55
2023-03-20T09:33:51.293Z,9.70
2023-03-20T09:36:18.095Z,9.69
2023-03-20T09:38:44.854Z,9.48
2023-03-20T09:41:26.135Z,9.71
2023-03-20T09:44:05.448Z,9.87
2023-03-20T09:46:49.412Z,9.79
2023-03-20T09:49:37.329Z,9.87
2023-03-20T09:52:24.227Z,9.86
2023-03-20T09:55:03.320Z,9.85
2023-03-20T09:57:51.546Z,9.85
2023-03-20T10:00:41.354Z,9.97
2023-03-20T10:03:26.317Z,10.00
2023-03-20T10:06:12.908Z,10.12
2023-03-20T10:08:40.552Z,10.16
2023-03-20T10:11:37.872Z,10.21
2023-03-20T10:14:28.712Z,10.34
2023-03-20T10:17:21.443Z,10.35
2023-03-20T10:20:02.969Z,10.41
2023-03-20T10:22:46.909Z,10.32
2023-03-20T10:25:24.938Z,10.53
2023-03-20T10:28:05.649Z,10.66
2023-03-20T10:31:21.103Z,10.69
2023-03-20T10:34:18.078Z,10.89
2023-03-20T10:37:18.874Z,10.82
2023-03-20T10:40:23.962Z,10.80
2023-03-20T10:42:55.355Z,11.04
2023-03-20T10:45:44.698Z,11.09
2023-03-20T10:48:29.790Z,11.05
2023-03-20T10:51:02.148Z,11.29
2023-03-20T10:53:40.617Z,11.30
2023-03-20T10:56:16.398Z,11.40
2023-03-20T10:58:47.454Z,11.48
2023-03-20T11:01:14.865Z,11.48
2023-03-20T11:03:41.928Z,11.58
2023-03-20T11:06:22.386Z,11.21
2023-03-20T11:08:52.684Z,11.17
2023-03-20T11:11:28.493Z,11.23
2023-03-20T11:13:56.219Z,11.12
2023-03-20T11:16:31.081Z,11.24
2023-03-20T11:19:07.727Z,11.33
2023-03-20T11:21:44.258Z,11.41
2023-03-20T11:24:42.877Z,11.56
2023-03-20T11:27:26.808Z,11.66
2023-03-20T11:29:55.667Z,11.52
2023-03-20T11:32:30.053Z,11.67
2023-03-20T11:35:11.292Z,11.67
2023-03-20T11:37:45.393Z,11.63
2023-03-20T11:40:31.599Z,11.72
2023-03-20T11:43:00.809Z,11.84
2023-03-20T11:45:35.407Z,11.61
2023-03-20T11:48:03.930Z,11.64
2023-03-20T11:50:49.707Z,11.63
2023-03-20T11:53:33.909Z,11.58
2023-03-20T11:56:11.369Z,11.69
2023-03-20T11:59:05.042Z,11.82
2023-03-20T12:01:44.808Z,11.76
2023-03-20T12:04:27.902Z,11.86
2023-03-20T12:07:06.048Z,11.73
2023-03-20T12:09:39.428Z,11.78
2023-03-20T12:12:33.240Z,11.84
2023-03-20T12:15:34.633Z,11.83
2023-03-20T12:18:03.891Z,11.85
2023-03-20T12:21:05.784Z,11.81
2023-03-20T12:23:41.403Z,11.93
2023-03-20T12:26:31.017Z,11.84
2023-03-20T12:29:33.224Z,12.03
2023-03-20T12:32:13.267Z,12.07
2023-03-20T12:34:56.842Z,12.11
2023-03-20T12:37:23.908Z,12.22
2023-03-20T12:39:54.827Z,12.23
2023-03-20T12:42:58.757Z,12.29
2023-03-20T12:45:44.737Z,11.79
2023-03-20T12:48:36.104Z,11.99
2023-03-20T12:51:21.338Z,12.04
2023-03-20T12:54:12.522Z,12.16
2023-03-20T12:57:01.190Z,12.24
2023-03-20T13:00:02.133Z,12.42
2023-03-20T13:03:04.335Z,12.33
2023-03-20T13:06:08.290Z,12.43
2023-03-20T13:08:38.942Z,12.61
2023-03-20T13:11:17.496Z,12.52
2023-03-20T13:13:57.221Z,12.60
2023-03-20T13:16:36.191Z,12.79
2023-03-20T13:19:28.213Z,12.69
2023-03-20T13:22:14.919Z,12.61
2023-03-20T13:24:50.946Z,12.64
2023-03-20T13:27:35.897Z,12.52
2023-03-20T13:30:13.626Z,12.72
2023-03-20T13:33:22.745Z,12.68
2023-03-20T13:36:06.179Z,12.67
2023-03-20T13:38:40.477Z,12.76
2023-03-20T13:41:09.838Z,12.74
2023-03-20T13:43:50.696Z,12.96
2023-03-20T13:46:49.916Z,13.09
2023-03-20T13:49:34.012Z,13.20
2023-03-20T13:52:16.872Z,13.09
2023-03-20T13:55:30.264Z,12.74
2023-03-20T13:58:49.198Z,12.76
2023-03-20T14:01:51.144Z,12.59
2023-03-20T14:04:23.539Z,12.67
2023-03-20T14:06:59.058Z,12.84
2023-03-20T14:09:37.478Z,12.96
2023-03-20T14:12:11.284Z,13.10
2023-03-20T14:14:43.864Z,13.04
2023-03-20T14:17:19.425Z,13.11
2023-03-20T14:19:47.370Z,13.09
2023-03-20T14:22:39.225Z,13.11
2023-03-20T14:25:12.961Z,13.04
2023-03-20T14:28:13.584Z,12.94
2023-03-20T14:30:49.208Z,12.92
2023-03-20T14:33:20.034Z,13.03
2023-03-20T14:36:11.676Z,13.26
2023-03-20T14:39:06.068Z,13.39
2023-03-20T14:42:08.320Z,13.83
2023-03-20T14:45:21.035Z,13.86
2023-03-20T14:48:24.913Z,14.03
2023-03-20T14:51:01.787Z,13.97
2023-03-20T14:53:29.094Z,14.04
2023-03-20T14:55:55.773Z,13.98
2023-03-20T14:58:37.502Z,13.51
2023-03-20T15:01:17.661Z,13.80
2023-03-20T15:03:51.496Z,14.02
2023-03-20T15:06:21.956Z,14.11
2023-03-20T15:09:00.880Z,14.10
2023-03-20T15:11:28.133Z,14.13
2023-03-20T15:13:56.377Z,14.12
2023-03-20T15:16:30.312Z,14.08
2023-03-20T15:18:57.456Z,13.93
2023-03-20T15:21:36.390Z,13.84
2023-03-20T15:24:04.434Z,13.86
2023-03-20T15:26:35.520Z,13.86
2023-03-20T15:29:13.972Z,13.56
2023-03-20T15:31:41.503Z,13.58
2023-03-20T15:34:36.054Z,13.59
2023-03-20T15:37:03.817Z,13.53
2023-03-20T15:39:44.370Z,13.55
2023-03-20T15:42:17.296Z,13.34
2023-03-20T15:44:50.420Z,13.31
2023-03-20T15:47:22.872Z,13.20
2023-03-20T15:50:00.904Z,13.25
2023-03-20T15:52:52.797Z,13.42
2023-03-20T15:55:23.475Z,13.30
2023-03-20T15:57:54.097Z,13.44
2023-03-20T16:00:35.067Z,13.44
2023-03-20T16:03:07.321Z,13.53
2023-03-20T16:05:35.385Z,13.35
2023-03-20T16:08:29.538Z,13.44
2023-03-20T16:11:05.598Z,13.56
2023-03-20T16:13:39.131Z,13.45
2023-03-20T16:16:10.635Z,13.35
2023-03-20T16:18:39.720Z,13.26
2023-03-20T16:21:25.323Z,13.14
2023-03-20T16:23:59.633Z,13.09
2023-03-20T16:26:27.866Z,13.25
2023-03-20T16:28:59.427Z,13.22
2023-03-20T16:31:29.626Z,13.27
2023-03-20T16:34:01.857Z,13.21
2023-03-20T16:36:33.376Z,13.18
2023-03-20T16:39:09.620Z,13.19
2023-03-20T16:41:40.160Z,13.08
2023-03-20T16:44:16.088Z,13.03
2023-03-20T16:47:03.037Z,13.05
2023-03-20T16:49:29.915Z,13.05
2023-03-20T16:52:03.194Z,12.98
2023-03-20T16:54:35.109Z,12.93
2023-03-20T16:57:04.111Z,12.75
2023-03-20T16:59:31.024Z,12.70
2023-03-20T17:02:01.798Z,12.65
2023-03-20T17:04:36.222Z,12.62
2023-03-20T17:07:17.984Z,12.60
2023-03-20T17:10:18.447Z,12.45
2023-03-20T17:12:48.496Z,12.40
2023-03-20T17:15:21.764Z,12.37
2023-03-20T17:17:48.596Z,12.27
2023-03-20T17:20:27.940Z,12.11
2023-03-20T17:22:55.337Z,12.06
2023-03-20T17:25:22.210Z,11.90
2023-03-20T17:27:49.020Z,11.80
2023-03-20T17:30:25.477Z,11.67
2023-03-20T17:32:52.758Z,11.59
2023-03-20T17:35:19.910Z,11.44
2023-03-20T17:37:46.823Z,11.42
2023-03-20T17:40:25.319Z,11.38
2023-03-20T17:42:52.145Z,11.24
2023-03-20T17:45:20.811Z,11.12
2023-03-20T17:47:48.867Z,11.20
2023-03-20T17:50:25.619Z,11.24
2023-03-20T17:52:52.651Z,11.23
2023-03-20T17:55:19.750Z,11.20
2023-03-20T17:57:46.917Z,11.04
2023-03-20T18:00:20.148Z,10.88
2023-03-20T18:02:47.041Z,10.81
2023-03-20T18:05:14.119Z,10.83
2023-03-20T18:07:40.977Z,10.82
2023-03-20T18:10:21.004Z,10.61
2023-03-20T18:12:47.843Z,10.63
2023-03-20T18:15:14.703Z,10.53
2023-03-20T18:17:41.441Z,10.46
2023-03-20T18:20:24.126Z,10.29
2023-03-20T18:22:50.935Z,10.36
2023-03-20T18:25:17.808Z,10.41
2023-03-20T18:27:44.574Z,10.36
2023-03-20T18:30:24.942Z,10.35
2023-03-20T18:32:51.786Z,10.35
2023-03-20T18:35:18.993Z,10.34
2023-03-20T18:37:46.158Z,10.14
2023-03-20T18:40:29.857Z,10.19
2023-03-20T18:42:58.031Z,10.11
2023-03-20T18:45:28.020Z,10.06
2023-03-20T18:47:56.126Z,10.01
2023-03-20T18:50:36.519Z,10.03
2023-03-20T18:53:05.894Z,10.06
2023-03-20T18:55:33.243Z,10.06
2023-03-20T18:58:03.655Z,10.03
2023-03-20T19:00:40.501Z,10.06
2023-03-20T19:03:09.161Z,10.12
2023-03-20T19:05:36.462Z,9.98
2023-03-20T19:08:03.587Z,10.08
2023-03-20T19:10:39.563Z,10.07
2023-03-20T19:13:07.764Z,9.96
2023-03-20T19:15:37.353Z,9.89
2023-03-20T19:18:07.788Z,9.78
2023-03-20T19:20:48.123Z,9.70
2023-03-20T19:23:17.802Z,9.61
2023-03-20T19:25:48.114Z,9.57
2023-03-20T19:28:38.284Z,9.63
2023-03-20T19:31:06.852Z,9.65
2023-03-20T19:33:34.583Z,9.66
2023-03-20T19:36:03.975Z,9.55
2023-03-20T19:38:32.062Z,9.60
2023-03-20T19:41:00.068Z,9.54
2023-03-20T19:43:28.955Z,9.47
2023-03-20T19:45:59.052Z,9.52
2023-03-20T19:48:46.016Z,9.41
2023-03-20T19:51:19.906Z,9.32
2023-03-20T19:53:47.150Z,9.24
2023-03-20T19:56:16.678Z,9.23
2023-03-20T19:58:44.431Z,9.12
2023-03-20T20:01:18.518Z,9.09
2023-03-20T20:03:45.921Z,9.06
2023-03-20T20:06:12.840Z,9.05
2023-03-20T20:08:49.455Z,8.97
2023-03-20T20:11:21.015Z,8.82
2023-03-20T20:14:05.804Z,8.64
2023-03-20T20:16:36.164Z,8.65
2023-03-20T20:19:03.613Z,8.69
2023-03-20T20:24:17.346Z,8.42
2023-03-20T20:26:54.979Z,8.35
2023-03-20T20:29:24.903Z,8.28
2023-03-20T20:31:51.792Z,8.15
2023-03-20T20:37:53.820Z,8.02
2023-03-20T20:39:53.426Z,7.95
2023-03-20T20:42:20.702Z,7.94
2023-03-20T20:44:47.766Z,7.73
2023-03-20T20:47:15.803Z,7.69
2023-03-20T20:49:43.472Z,7.70
2023-03-20T20:52:10.448Z,7.61
2023-03-20T20:54:37.709Z,7.47
2023-03-20T20:57:04.553Z,7.31
2023-03-20T20:59:31.345Z,7.29
2023-03-20T21:01:58.143Z,7.32
2023-03-20T21:04:24.986Z,7.30
2023-03-20T21:07:09.418Z,7.20
2023-03-20T21:09:37.354Z,7.14
2023-03-20T21:12:05.360Z,7.03
2023-03-20T21:14:32.160Z,6.92
2023-03-20T21:17:01.994Z,6.86
2023-03-20T21:19:39.372Z,6.92
2023-03-20T21:22:09.496Z,6.91
2023-03-20T21:24:36.677Z,6.88
2023-03-20T21:27:06.934Z,6.90
2023-03-20T21:29:34.297Z,6.89
2023-03-20T21:32:01.151Z,6.85
2023-03-20T21:34:29.228Z,6.70
2023-03-20T21:36:57.910Z,6.69
2023-03-20T21:39:27.631Z,6.59
2023-03-20T21:41:54.416Z,6.69
2023-03-20T21:44:57.287Z,6.71
2023-03-20T21:56:23.709Z,6.48
2023-03-20T22:07:28.604Z,6.84
2023-03-20T22:12:54.227Z,6.80
2023-03-20T22:15:34.045Z,6.85
2023-03-20T22:29:39.380Z,6.73
2023-03-20T22:35:05.162Z,6.90
2023-03-20T22:40:48.695Z,7.05
2023-03-20T22:43:00.140Z,6.96
2023-03-20T22:45:42.721Z,7.04
2023-03-20T22:48:11.650Z,6.97
2023-03-20T22:50:40.027Z,6.97
2023-03-20T22:53:07.030Z,7.00
2023-03-20T22:55:33.824Z,7.04
2023-03-20T22:58:07.277Z,7.02
2023-03-20T23:00:36.139Z,7.14
2023-03-20T23:03:37.733Z,7.14
2023-03-20T23:05:52.404Z,7.17
2023-03-20T23:08:19.171Z,7.18
2023-03-20T23:10:50.750Z,7.14
2023-03-20T23:13:19.484Z,7.09
2023-03-20T23:15:47.247Z,7.15
2023-03-20T23:18:15.096Z,7.12
2023-03-20T23:20:42.132Z,7.17
2023-03-20T23:23:09.549Z,7.22
2023-03-20T23:25:39.613Z,7.21
2023-03-20T23:28:09.485Z,7.21
2023-03-20T23:30:45.292Z,7.22
2023-03-20T23:33:15.718Z,7.15
2023-03-20T23:35:42.629Z,7.11
2023-03-20T23:38:09.398Z,7.10
2023-03-20T23:40:36.679Z,6.99
2023-03-20T23:43:03.817Z,7.02
2023-03-20T23:45:30.585Z,6.90
2023-03-20T23:47:57.346Z,6.87
2023-03-20T23:50:36.526Z,6.99
2023-03-20T23:53:19.853Z,6.81
2023-03-20T23:55:49.115Z,6.91
2023-03-20T23:58:16.711Z,6.95
